Hartford-Brainard Airport

Airport
ICAO code: 
KHFD
Summary
ICAO Region: 
NAM
Territory: 
Location: 
Hartford, Connecticut,
Elevation: 
18 ft
Coordinates: 
Aerial View: 
41° 44' 12.199" N, 72° 38' 57.998" W
Metar
Observation
KHFD 020853Z AUTO 00000KT 8SM -RA OVC041 03/01 A2997 RMK AO2 RAE0755B22 SLP150 P0001 60001 T00330011 58031
Station
Hartford, Hartford-Brainard Airport
Date/Time
2021-12-02 08:53:00
Wind direction
Wind speed
00 kts
Lowest cloud amount
overcast
Temperature
3.3°C
Dew point
1.1°C
Humidity
85%
Weather condition
light rain

Description

Hartford-Brainard Airport is a public and designated reliever airport located 5 km southeast of downtown Hartford, in Hartford County, Connecticut.

Climatology

Humid “subtropical”/Continental climate (Köppen climate classification Cfa/Dfa) - characterized by hot, humid summers and cool/cold winters. Significant amounts of precipitation occur in all seasons in most areas. Winter rainfall (and snowfall) is associated with large storms that the westerlies steer from west to east. Most summer rainfall occurs during thunderstorms.

Runways

Designator Length Width Surface Rops
NE/SW 704 46 TURF No/No
11/29 705 22 ASP Yes/Yes
2/20 1346 46 ASP Yes/Yes
Airport map: 
Aerial View: 

SKYbrary Partners:

Safety knowledge contributed by: